TAF KSME
KSME 090538Z 0906/1006 VRB03KT P6SM SKC FM091500 14006KT P6SM SCT200 FM091900 17010G18KT P6SM FEW250=
METAR KSME
WC KSME
WS KSME
WV KSME